Time;durP1;ratioP1;P1;durP2;ratioP2;P2;SDS_P1;SDS_P2;PMS_P1;PMS_P2;Temp;Humidity;BMP_temperature;BMP_pressure;BME280_temperature;BME280_humidity;BME280_pressure;Samples;Min_cycle;Max_cycle;Signal;HPM_P1;HPM_P2
2022/03/04 00:01:28;;;;;;;33.53;14.95;;;;;;;4.71;46.10;101481.63;5074574;28;20412;-62
2022/03/04 00:03:55;;;;;;;34.90;15.52;;;;;;;4.59;46.98;101485.88;5073890;28;20509;-62
2022/03/04 00:06:22;;;;;;;33.85;14.70;;;;;;;4.56;47.14;101491.31;5057075;28;20063;-62
2022/03/04 00:08:50;;;;;;;29.98;14.13;;;;;;;4.52;47.28;101491.59;5053839;28;20065;-62
2022/03/04 00:11:18;;;;;;;34.47;15.15;;;;;;;4.43;46.63;101487.75;5053524;28;20056;-62
2022/03/04 00:13:44;;;;;;;35.25;14.98;;;;;;;4.53;46.89;101486.25;5054880;28;20115;-62
2022/03/04 00:16:11;;;;;;;34.65;15.13;;;;;;;4.56;46.68;101486.03;5054751;28;20045;-62
2022/03/04 00:18:38;;;;;;;34.53;15.82;;;;;;;4.54;46.12;101485.31;5054489;28;20052;-62
2022/03/04 00:21:06;;;;;;;34.78;14.65;;;;;;;4.50;46.54;101491.69;5073492;28;20041;-62
2022/03/04 00:23:33;;;;;;;34.42;15.30;;;;;;;4.50;46.05;101493.50;5073947;28;20382;-62
2022/03/04 00:26:00;;;;;;;38.40;17.00;;;;;;;4.46;46.92;101491.97;5073551;28;20492;-62
2022/03/04 00:28:27;;;;;;;39.42;16.15;;;;;;;4.41;46.74;101497.53;5074593;28;20430;-62
2022/03/04 00:30:54;;;;;;;34.20;14.88;;;;;;;4.29;46.45;101495.66;5074584;28;20382;-62
2022/03/04 00:33:20;;;;;;;33.08;14.63;;;;;;;4.31;47.47;101499.91;5074360;28;20440;-64
2022/03/04 00:35:47;;;;;;;34.28;15.23;;;;;;;4.22;47.50;101498.69;5073351;28;20063;-63
2022/03/04 00:38:14;;;;;;;34.58;15.32;;;;;;;4.15;47.42;101500.00;5072909;28;20056;-62
2022/03/04 00:40:40;;;;;;;35.97;14.57;;;;;;;4.05;47.43;101496.22;5074130;28;20405;-63
2022/03/04 00:43:07;;;;;;;39.13;15.13;;;;;;;4.03;47.14;101501.56;5072712;28;20040;-63
2022/03/04 00:45:40;;;;;;;35.60;15.82;;;;;;;4.11;47.40;101509.00;5074028;28;20044;-63
2022/03/04 00:48:07;;;;;;;35.45;15.75;;;;;;;4.04;47.38;101511.16;5072613;28;20098;-63
2022/03/04 00:50:33;;;;;;;35.80;15.43;;;;;;;3.97;47.92;101511.63;5091583;28;20451;-63
2022/03/04 00:53:01;;;;;;;38.42;15.23;;;;;;;3.96;48.02;101515.16;5093808;28;20385;-63
2022/03/04 00:55:28;;;;;;;35.97;15.60;;;;;;;3.99;47.54;101515.00;5093198;28;20068;-63
2022/03/04 00:57:55;;;;;;;34.65;15.18;;;;;;;3.98;47.31;101513.28;5079138;28;20037;-63
2022/03/04 01:00:22;;;;;;;36.97;15.63;;;;;;;4.14;47.40;101518.47;5073386;28;20447;-64
2022/03/04 01:02:48;;;;;;;33.72;15.20;;;;;;;4.10;47.60;101509.09;5072466;28;20036;-63
2022/03/04 01:05:15;;;;;;;37.05;15.93;;;;;;;4.08;47.26;101519.69;5072692;28;20040;-63
2022/03/04 01:07:42;;;;;;;38.63;16.38;;;;;;;4.06;47.54;101518.06;5024096;28;20040;-62
2022/03/04 01:10:09;;;;;;;37.53;15.35;;;;;;;3.91;47.94;101520.69;5073356;28;20094;-63
2022/03/04 01:12:36;;;;;;;38.67;16.27;;;;;;;3.95;47.95;101522.19;5072605;28;20040;-63
2022/03/04 01:15:03;;;;;;;38.28;15.95;;;;;;;4.03;47.77;101524.34;5073559;28;20087;-63
2022/03/04 01:17:30;;;;;;;35.92;15.82;;;;;;;3.97;48.61;101519.50;5073712;28;20044;-63
2022/03/04 01:19:56;;;;;;;33.67;15.25;;;;;;;3.96;48.93;101528.28;5073424;28;20052;-63
2022/03/04 01:22:23;;;;;;;35.70;15.85;;;;;;;3.92;48.40;101524.16;5073271;28;20039;-63
2022/03/04 01:24:50;;;;;;;35.30;15.82;;;;;;;3.90;48.63;101520.78;5071690;28;20041;-63
2022/03/04 01:27:16;;;;;;;37.33;16.58;;;;;;;3.82;49.24;101521.22;5073319;28;20044;-63
2022/03/04 01:29:43;;;;;;;37.95;15.95;;;;;;;3.84;49.98;101520.22;5073045;28;20040;-63
2022/03/04 01:32:10;;;;;;;38.60;16.63;;;;;;;3.74;49.98;101521.69;5071974;28;20039;-63
2022/03/04 01:34:37;;;;;;;36.50;16.60;;;;;;;3.73;50.39;101513.91;5073407;28;20090;-63
2022/03/04 01:37:04;;;;;;;36.83;15.43;;;;;;;3.68;49.05;101510.72;5073155;28;20079;-63
2022/03/04 01:39:31;;;;;;;40.55;17.15;;;;;;;3.65;50.25;101509.94;5073106;28;20431;-63
2022/03/04 01:41:57;;;;;;;45.88;16.85;;;;;;;3.60;49.73;101506.78;5071890;28;20519;-63
2022/03/04 01:44:24;;;;;;;35.45;16.00;;;;;;;3.63;49.36;101508.34;5072028;28;20551;-63
2022/03/04 01:46:57;;;;;;;34.33;16.08;;;;;;;3.68;49.46;101508.09;5072958;28;20102;-63
2022/03/04 01:49:24;;;;;;;39.53;17.50;;;;;;;3.65;49.80;101516.97;5071971;28;20493;-63
2022/03/04 01:51:51;;;;;;;37.10;17.10;;;;;;;3.42;50.06;101513.06;5073190;28;20481;-63
2022/03/04 01:54:18;;;;;;;38.53;16.85;;;;;;;3.46;50.04;101502.31;5073039;28;20048;-63
2022/03/04 01:56:45;;;;;;;39.90;17.15;;;;;;;3.45;51.23;101505.88;5071856;28;20048;-63
2022/03/04 01:59:11;;;;;;;38.80;17.02;;;;;;;3.49;50.21;101509.16;5072930;28;20055;-63
2022/03/04 02:01:39;;;;;;;40.95;17.88;;;;;;;3.46;50.95;101504.94;5072572;28;20045;-63
2022/03/04 02:04:05;;;;;;;41.17;16.77;;;;;;;3.49;50.86;101510.94;5055473;28;20512;-63
2022/03/04 02:06:32;;;;;;;42.08;17.25;;;;;;;3.34;50.54;101513.50;5072662;28;20040;-63
2022/03/04 02:08:59;;;;;;;40.70;16.23;;;;;;;3.42;51.04;101505.19;5071513;28;20443;-63
2022/03/04 02:11:26;;;;;;;37.55;16.17;;;;;;;3.39;50.88;101514.09;5055024;28;20124;-63
2022/03/04 02:13:56;;;;;;;42.92;17.02;;;;;;;3.35;50.69;101515.22;5072840;28;20390;-63
2022/03/04 02:16:32;;;;;;;37.97;15.85;;;;;;;3.36;51.52;101516.91;5072579;28;20032;-63
2022/03/04 02:18:59;;;;;;;36.30;16.35;;;;;;;3.36;50.68;101506.41;5072640;28;20102;-63
2022/03/04 02:21:26;;;;;;;41.90;17.42;;;;;;;3.28;51.28;101505.19;5072818;28;20052;-63
2022/03/04 02:23:53;;;;;;;39.50;17.05;;;;;;;3.03;51.64;101511.81;5072736;28;20534;-63
2022/03/04 02:26:19;;;;;;;39.92;17.02;;;;;;;3.06;51.21;101504.59;5072796;28;20087;-63
2022/03/04 02:28:46;;;;;;;42.55;17.48;;;;;;;3.11;51.60;101507.00;5071485;28;20452;-63
2022/03/04 02:31:14;;;;;;;36.33;17.42;;;;;;;3.08;52.11;101500.13;5072671;28;20045;-63
2022/03/04 02:33:43;;;;;;;37.13;16.80;;;;;;;3.17;52.14;101509.25;5072668;28;20047;-63
2022/03/04 02:36:11;;;;;;;39.80;16.85;;;;;;;3.24;51.98;101497.47;5071484;28;20101;-63
2022/03/04 02:38:37;;;;;;;40.70;16.80;;;;;;;3.27;51.18;101499.06;5071450;28;20408;-63
2022/03/04 02:41:04;;;;;;;36.72;17.60;;;;;;;3.19;51.57;101498.69;5072635;28;20515;-63
2022/03/04 02:43:31;;;;;;;39.45;17.42;;;;;;;3.31;51.21;101494.50;5072776;28;20051;-63
2022/03/04 02:45:58;;;;;;;40.00;16.35;;;;;;;3.31;51.04;101494.50;5072743;28;20114;-63
2022/03/04 02:48:26;;;;;;;40.63;17.02;;;;;;;3.26;50.80;101500.03;5074670;28;20051;-63
2022/03/04 02:50:55;;;;;;;40.55;17.50;;;;;;;3.34;51.21;101487.28;5087275;28;20040;-63
2022/03/04 02:53:21;;;;;;;36.92;16.65;;;;;;;3.26;51.01;101489.53;5095548;28;20412;-63
2022/03/04 02:55:48;;;;;;;42.72;17.05;;;;;;;3.31;51.50;101487.50;5095716;28;20487;-63
2022/03/04 02:58:15;;;;;;;43.58;17.25;;;;;;;3.31;51.28;101487.50;5077802;28;20051;-63
2022/03/04 03:00:42;;;;;;;43.00;18.23;;;;;;;3.27;51.41;101488.56;5074222;28;20052;-63
2022/03/04 03:03:09;;;;;;;39.58;17.10;;;;;;;3.23;52.59;101493.16;5076173;28;20132;-63
2022/03/04 03:05:36;;;;;;;40.03;16.92;;;;;;;3.18;51.52;101489.09;5074638;28;20501;-63
2022/03/04 03:08:03;;;;;;;42.20;18.05;;;;;;;3.01;51.73;101490.91;5074755;28;20094;-63
2022/03/04 03:10:31;;;;;;;39.92;17.83;;;;;;;3.10;51.56;101494.78;5058113;28;20053;-63
2022/03/04 03:12:58;;;;;;;43.97;17.58;;;;;;;3.21;52.24;101500.25;5074776;28;20044;-63
2022/03/04 03:15:25;;;;;;;37.35;17.35;;;;;;;3.15;52.92;101494.53;5076168;28;20098;-62
2022/03/04 03:17:52;;;;;;;40.45;17.85;;;;;;;3.20;51.66;101487.25;5077506;28;20045;-62
2022/03/04 03:20:19;;;;;;;37.30;16.80;;;;;;;3.12;51.99;101492.94;5074787;28;20044;-63
2022/03/04 03:22:47;;;;;;;37.00;16.85;;;;;;;3.08;52.59;101494.03;5075529;28;20083;-63
2022/03/04 03:25:14;;;;;;;39.55;17.08;;;;;;;3.11;52.33;101486.00;5024653;28;20404;-63
2022/03/04 03:27:41;;;;;;;38.65;16.55;;;;;;;2.98;52.36;101498.09;5057896;28;20102;-62
2022/03/04 03:30:09;;;;;;;37.28;16.55;;;;;;;2.98;52.74;101488.47;5075599;28;20094;-63
2022/03/04 03:32:36;;;;;;;39.78;16.83;;;;;;;3.02;53.02;101490.00;5057707;28;20048;-63
2022/03/04 03:35:02;;;;;;;39.38;17.27;;;;;;;2.89;51.92;101488.97;5075423;28;20086;-63
2022/03/04 03:37:29;;;;;;;40.63;17.85;;;;;;;2.98;52.09;101491.06;5057563;28;20512;-63
2022/03/04 03:39:56;;;;;;;36.95;16.50;;;;;;;3.01;52.38;101495.31;5074515;28;20048;-62
2022/03/04 03:42:23;;;;;;;37.42;16.45;;;;;;;3.01;52.48;101495.31;5074215;28;20408;-63
2022/03/04 03:44:49;;;;;;;36.67;16.25;;;;;;;3.01;52.53;101496.16;5073937;28;20455;-63
2022/03/04 03:47:16;;;;;;;40.25;16.63;;;;;;;3.00;52.25;101498.84;5075497;28;20048;-63
2022/03/04 03:49:44;;;;;;;38.80;16.70;;;;;;;2.92;52.34;101496.69;5075325;28;20097;-63
2022/03/04 03:52:11;;;;;;;39.28;16.35;;;;;;;2.81;52.47;101502.50;5075402;28;20049;-63
2022/03/04 03:54:38;;;;;;;39.85;17.85;;;;;;;2.82;52.91;101500.72;5073714;28;20484;-63
2022/03/04 03:57:04;;;;;;;40.05;16.48;;;;;;;2.75;52.64;101500.25;5075489;28;20041;-63
2022/03/04 03:59:31;;;;;;;37.88;16.40;;;;;;;2.72;52.68;101503.03;5074925;28;20052;-62
2022/03/04 04:01:59;;;;;;;41.45;17.10;;;;;;;2.68;52.64;101506.75;5074653;28;20048;-62
2022/03/04 04:04:26;;;;;;;38.10;17.05;;;;;;;2.45;53.03;101506.22;5073895;28;20102;-62
2022/03/04 04:06:52;;;;;;;39.13;17.30;;;;;;;2.52;53.48;101505.91;5074616;28;20051;-63
2022/03/04 04:09:19;;;;;;;37.38;17.02;;;;;;;2.45;53.17;101513.22;5074860;28;20048;-63
2022/03/04 04:11:46;;;;;;;35.08;16.08;;;;;;;2.42;53.96;101511.63;5073885;28;20090;-62
2022/03/04 04:14:13;;;;;;;41.22;18.17;;;;;;;2.45;53.53;101521.94;5074456;28;20029;-62
2022/03/04 04:16:40;;;;;;;40.72;17.52;;;;;;;2.47;52.99;101527.09;5073419;28;20109;-62
2022/03/04 04:19:07;;;;;;;38.03;16.95;;;;;;;2.55;53.29;101518.81;5074807;28;20489;-62
2022/03/04 04:21:34;;;;;;;39.15;16.55;;;;;;;2.47;54.21;101520.09;5074727;28;20048;-63
2022/03/04 04:24:01;;;;;;;39.33;16.73;;;;;;;2.49;54.38;101515.63;5074510;28;20041;-62
2022/03/04 04:26:28;;;;;;;34.75;16.65;;;;;;;2.49;53.81;101517.38;5072943;28;20526;-62
2022/03/04 04:28:54;;;;;;;36.97;16.70;;;;;;;2.41;54.12;101525.66;5073269;28;20056;-62
2022/03/04 04:31:21;;;;;;;33.47;16.27;;;;;;;2.44;54.58;101517.63;5074429;28;20056;-62
2022/03/04 04:33:48;;;;;;;40.05;16.35;;;;;;;2.39;54.54;101517.03;5074605;28;20121;-62
2022/03/04 04:36:14;;;;;;;38.47;16.50;;;;;;;2.45;55.33;101523.72;5073291;28;20557;-62
2022/03/04 04:38:41;;;;;;;38.60;16.83;;;;;;;2.42;54.47;101526.47;5073202;28;20044;-62
2022/03/04 04:41:08;;;;;;;39.97;16.58;;;;;;;2.51;54.74;101523.41;5073904;28;20109;-62
2022/03/04 04:43:35;;;;;;;37.95;17.20;;;;;;;2.39;54.96;101524.06;5073132;28;20036;-62
2022/03/04 04:46:03;;;;;;;37.63;16.45;;;;;;;2.34;54.96;101526.91;5072740;28;20110;-62
2022/03/04 04:48:31;;;;;;;43.75;16.75;;;;;;;2.29;55.38;101535.00;5072739;28;20036;-63
2022/03/04 04:51:05;;;;;;;41.65;17.10;;;;;;;2.26;55.25;101529.94;5078735;28;20065;-62
2022/03/04 04:53:34;;;;;;;38.88;16.02;;;;;;;2.22;56.32;101538.88;5094565;28;20044;-62
2022/03/04 04:56:01;;;;;;;36.85;16.70;;;;;;;2.16;56.29;101539.19;5093654;28;20040;-62
2022/03/04 04:58:28;;;;;;;41.75;16.70;;;;;;;2.13;57.06;101534.13;5073602;28;20049;-62
2022/03/04 05:00:55;;;;;;;39.95;16.42;;;;;;;2.07;56.93;101531.81;5073252;28;20462;-62
2022/03/04 05:03:23;;;;;;;35.42;15.77;;;;;;;2.05;56.64;101531.88;5072609;28;20127;-62
2022/03/04 05:05:52;;;;;;;39.92;16.58;;;;;;;2.02;57.13;101528.59;5073766;28;20041;-62
2022/03/04 05:08:19;;;;;;;34.10;16.20;;;;;;;1.99;56.65;101534.00;5073432;28;20405;-62
2022/03/04 05:10:46;;;;;;;41.03;17.20;;;;;;;1.94;56.79;101531.59;5071743;28;20095;-62
2022/03/04 05:13:14;;;;;;;39.10;16.27;;;;;;;1.97;57.48;101531.44;5073317;28;20036;-62
2022/03/04 05:15:41;;;;;;;43.55;17.45;;;;;;;1.96;57.01;101534.16;5056277;28;20094;-62
2022/03/04 05:18:09;;;;;;;41.33;17.60;;;;;;;2.01;57.68;101543.44;5073361;28;20036;-62
2022/03/04 05:20:36;;;;;;;37.60;17.27;;;;;;;1.91;57.71;101547.44;5073457;28;20047;-62
2022/03/04 05:23:03;;;;;;;36.20;16.98;;;;;;;1.94;58.09;101546.47;5072065;28;20036;-63
2022/03/04 05:25:30;;;;;;;37.45;16.25;;;;;;;1.89;57.36;101544.06;5073087;28;20040;-62
2022/03/04 05:27:57;;;;;;;38.10;17.08;;;;;;;1.96;57.29;101555.91;5074265;28;20051;-62
2022/03/04 05:30:24;;;;;;;37.80;16.58;;;;;;;1.99;56.98;101542.69;5072982;28;20049;-62
2022/03/04 05:32:51;;;;;;;39.80;16.98;;;;;;;1.99;57.19;101544.47;5072159;28;20489;-62
2022/03/04 05:35:17;;;;;;;38.83;16.70;;;;;;;1.97;58.12;101543.69;5073539;28;20045;-62
2022/03/04 05:37:44;;;;;;;42.85;16.55;;;;;;;1.95;57.10;101541.16;5073470;28;20493;-62
2022/03/04 05:40:11;;;;;;;36.15;16.00;;;;;;;1.95;57.60;101549.00;5072665;28;20044;-62
2022/03/04 05:42:38;;;;;;;36.38;17.02;;;;;;;1.92;57.44;101544.75;5072816;28;20051;-62
2022/03/04 05:45:05;;;;;;;38.70;16.38;;;;;;;1.92;57.61;101557.84;5072903;28;20044;-62
2022/03/04 05:47:32;;;;;;;41.50;16.73;;;;;;;1.96;57.23;101560.31;5071975;28;20056;-62
2022/03/04 05:49:59;;;;;;;33.13;15.25;;;;;;;1.92;57.54;101562.25;5072985;28;20041;-62
2022/03/04 05:52:28;;;;;;;42.95;16.17;;;;;;;1.86;57.61;101568.63;5072937;28;20413;-62
2022/03/04 05:54:55;;;;;;;37.85;15.90;;;;;;;1.82;57.70;101569.72;5072898;28;20055;-62
2022/03/04 05:57:22;;;;;;;39.28;15.85;;;;;;;1.87;57.46;101564.25;5073108;28;20045;-62
2022/03/04 05:59:48;;;;;;;39.22;15.98;;;;;;;1.81;57.65;101570.63;5072945;28;20048;-62
2022/03/04 06:02:15;;;;;;;35.08;15.77;;;;;;;1.82;57.37;101568.84;5072564;28;20140;-62
2022/03/04 06:04:42;;;;;;;35.40;15.85;;;;;;;1.81;57.55;101570.63;5064831;28;20416;-62
2022/03/04 06:07:08;;;;;;;37.42;15.95;;;;;;;1.72;56.69;101573.72;5071481;28;20097;-62
2022/03/04 06:09:36;;;;;;;34.55;14.95;;;;;;;1.77;57.29;101576.13;5072391;28;20048;-62
2022/03/04 06:12:04;;;;;;;38.25;16.10;;;;;;;1.80;57.26;101574.19;5072349;28;20036;-62
2022/03/04 06:14:30;;;;;;;36.20;14.73;;;;;;;1.82;56.91;101574.97;5071372;28;20045;-63
2022/03/04 06:16:58;;;;;;;38.20;16.50;;;;;;;1.79;56.70;101582.09;5054911;28;20037;-63
2022/03/04 06:19:28;;;;;;;36.83;15.13;;;;;;;1.83;57.27;101578.41;5054944;28;20051;-63
2022/03/04 06:21:55;;;;;;;34.85;15.70;;;;;;;1.91;57.13;101578.84;5072637;28;20501;-63
2022/03/04 06:24:22;;;;;;;35.75;15.25;;;;;;;1.83;57.27;101583.63;5075986;28;20036;-63
2022/03/04 06:26:48;;;;;;;41.95;15.23;;;;;;;1.87;57.56;101579.94;5058734;28;20556;-62
2022/03/04 06:29:15;;;;;;;40.60;15.35;;;;;;;1.79;57.62;101584.72;5059196;28;20048;-64
2022/03/04 06:31:44;;;;;;;34.70;15.10;;;;;;;1.82;57.50;101592.41;5076625;28;20044;-63
2022/03/04 06:34:11;;;;;;;38.75;15.90;;;;;;;1.79;58.16;101589.97;5075498;28;20047;-62
2022/03/04 06:36:38;;;;;;;33.00;15.57;;;;;;;1.77;57.37;101602.28;5076406;28;20047;-63
2022/03/04 06:39:05;;;;;;;33.53;15.43;;;;;;;1.79;57.81;101597.81;5076588;28;20052;-63
2022/03/04 06:41:31;;;;;;;36.78;14.68;;;;;;;1.81;58.47;101603.81;5074365;28;20485;-63
2022/03/04 06:43:58;;;;;;;37.92;14.88;;;;;;;1.78;58.12;101606.56;5075987;28;20036;-63
2022/03/04 06:46:25;;;;;;;34.65;14.90;;;;;;;1.84;57.54;101612.34;5057821;28;20454;-63
2022/03/04 06:48:51;;;;;;;35.72;15.45;;;;;;;1.89;57.59;101604.25;5074770;28;20059;-63
2022/03/04 06:51:18;;;;;;;35.55;16.58;;;;;;;1.91;57.65;101608.50;5075394;28;20055;-62
2022/03/04 06:53:48;;;;;;;32.20;15.02;;;;;;;1.76;57.35;101621.50;5095039;28;20048;-63
2022/03/04 06:56:16;;;;;;;38.25;15.70;;;;;;;1.88;57.19;101607.81;5094309;28;20484;-62
2022/03/04 06:58:44;;;;;;;37.42;15.82;;;;;;;1.98;57.74;101613.41;5096095;28;20120;-63
2022/03/04 07:01:11;;;;;;;34.08;15.48;;;;;;;1.97;57.24;101622.22;5075850;28;20052;-63
2022/03/04 07:03:38;;;;;;;38.83;15.27;;;;;;;2.05;57.40;101625.28;5076195;28;20060;-62
2022/03/04 07:06:05;;;;;;;38.13;15.23;;;;;;;2.13;56.76;101630.13;5057671;28;20488;-63
2022/03/04 07:08:34;;;;;;;36.63;15.55;;;;;;;2.18;56.74;101635.97;5075604;28;20417;-63
2022/03/04 07:11:01;;;;;;;40.40;15.55;;;;;;;2.27;56.07;101630.25;5075435;28;20052;-63
2022/03/04 07:13:28;;;;;;;37.97;15.52;;;;;;;2.34;56.06;101633.44;5074808;28;20049;-63
2022/03/04 07:15:55;;;;;;;38.25;16.50;;;;;;;2.28;56.31;101637.22;5075762;28;20042;-63
2022/03/04 07:18:23;;;;;;;32.88;15.02;;;;;;;2.37;55.80;101631.50;5075617;28;20120;-63
2022/03/04 07:20:49;;;;;;;31.38;14.82;;;;;;;2.42;55.37;101633.84;5074638;28;20045;-62
2022/03/04 07:23:16;;;;;;;36.08;14.43;;;;;;;2.41;55.42;101635.63;5057732;28;20428;-63
2022/03/04 07:25:43;;;;;;;35.60;15.13;;;;;;;2.42;54.92;101634.72;5075092;28;20064;-63
2022/03/04 07:28:11;;;;;;;32.80;14.07;;;;;;;2.49;54.88;101640.47;5075214;28;20413;-63
2022/03/04 07:30:37;;;;;;;39.17;14.52;;;;;;;2.57;54.63;101637.47;5074057;28;20055;-63
2022/03/04 07:33:04;;;;;;;29.30;13.82;;;;;;;2.63;53.67;101642.38;5075085;28;20091;-63
2022/03/04 07:35:31;;;;;;;39.63;15.20;;;;;;;2.70;54.03;101635.91;5074083;28;20079;-63
2022/03/04 07:37:58;;;;;;;31.02;14.73;;;;;;;2.77;53.60;101647.75;5075058;28;20037;-62
2022/03/04 07:40:25;;;;;;;32.55;14.25;;;;;;;2.80;52.92;101641.47;5074985;28;20040;-62
2022/03/04 07:42:52;;;;;;;32.25;14.73;;;;;;;2.97;52.82;101643.22;5075563;28;20041;-62
2022/03/04 07:45:19;;;;;;;31.73;14.07;;;;;;;2.86;52.79;101638.56;5107975;28;20492;-62
2022/03/04 07:47:46;;;;;;;33.70;14.63;;;;;;;3.00;53.73;101646.53;5073720;28;20045;-62
2022/03/04 07:50:15;;;;;;;34.70;14.55;;;;;;;3.08;53.24;101644.31;5057303;28;20367;-63
2022/03/04 07:52:43;;;;;;;33.50;15.15;;;;;;;3.24;52.29;101646.13;5074271;28;20507;-63
2022/03/04 07:55:14;;;;;;;29.33;14.50;;;;;;;3.36;51.51;101645.41;5074702;28;20114;-63
2022/03/04 07:57:42;;;;;;;34.03;14.45;;;;;;;3.50;50.75;101647.28;5075232;28;20539;-63
2022/03/04 08:00:12;;;;;;;34.40;14.52;;;;;;;3.62;50.29;101651.84;5074839;28;20040;-63
2022/03/04 08:02:39;;;;;;;34.17;14.38;;;;;;;3.81;50.76;101653.41;5074845;28;20136;-63
2022/03/04 08:05:08;;;;;;;34.45;14.65;;;;;;;3.85;50.23;101647.03;5073764;28;20041;-63
2022/03/04 08:07:37;;;;;;;31.08;14.48;;;;;;;3.83;49.55;101657.63;5075079;28;20508;-63
2022/03/04 08:10:05;;;;;;;30.05;14.48;;;;;;;4.03;49.80;101661.72;5088556;28;20501;-63
2022/03/04 08:12:32;;;;;;;35.45;15.18;;;;;;;4.01;50.10;101660.13;5053857;28;20381;-63
2022/03/04 08:14:59;;;;;;;38.28;15.68;;;;;;;4.02;49.26;101657.44;5073135;28;20066;-63
2022/03/04 08:17:30;;;;;;;39.95;16.33;;;;;;;4.21;49.11;101657.19;5066950;28;20131;-63
2022/03/04 08:19:57;;;;;;;35.78;16.10;;;;;;;4.25;49.26;101663.09;5070918;28;20090;-63
2022/03/04 08:22:24;;;;;;;41.28;16.52;;;;;;;4.43;48.84;101662.00;5074052;28;20044;-63
2022/03/04 08:24:52;;;;;;;34.45;16.13;;;;;;;4.58;48.67;101664.66;5054471;28;20037;-63
2022/03/04 08:27:18;;;;;;;35.97;16.13;;;;;;;4.77;48.13;101667.03;5042093;28;20132;-66
2022/03/04 08:29:45;;;;;;;37.55;15.95;;;;;;;4.89;47.87;101668.88;5072961;28;20036;-64
2022/03/04 08:32:12;;;;;;;37.88;17.08;;;;;;;4.93;47.69;101667.78;5062831;28;20401;-65
2022/03/04 08:34:38;;;;;;;44.75;17.60;;;;;;;4.95;48.18;101670.31;5055614;28;20546;-64
2022/03/04 08:37:05;;;;;;;41.58;17.33;;;;;;;5.18;46.22;101668.88;5037161;28;20044;-64
2022/03/04 08:39:32;;;;;;;41.45;17.30;;;;;;;5.06;47.14;101665.22;5054285;28;20053;-64
2022/03/04 08:42:00;;;;;;;36.35;16.13;;;;;;;5.07;46.65;101666.06;5077263;28;20063;-65
2022/03/04 08:44:27;;;;;;;41.67;19.63;;;;;;;5.14;48.18;101670.00;5067408;28;20082;-65
2022/03/04 08:46:53;;;;;;;37.67;17.17;;;;;;;5.22;46.59;101677.41;5079223;28;20044;-64
2022/03/04 08:49:20;;;;;;;35.50;17.30;;;;;;;5.23;47.60;101673.84;5071397;28;20041;-64
2022/03/04 08:51:47;;;;;;;37.88;17.60;;;;;;;5.16;47.71;101671.59;5065481;28;20122;-64
2022/03/04 08:54:14;;;;;;;37.70;17.73;;;;;;;5.18;48.20;101672.34;5077506;28;20033;-64
2022/03/04 08:56:45;;;;;;;37.22;18.65;;;;;;;5.35;47.46;101678.34;5070784;28;20063;-65
2022/03/04 08:59:13;;;;;;;36.55;17.92;;;;;;;5.39;47.16;101672.78;5066411;28;20377;-65
2022/03/04 09:01:39;;;;;;;38.33;19.20;;;;;;;5.33;47.46;101678.44;5058289;28;20102;-64
2022/03/04 09:04:06;;;;;;;44.72;19.55;;;;;;;5.26;47.53;101671.03;5073392;28;20497;-65
2022/03/04 09:06:33;;;;;;;41.78;18.00;;;;;;;5.08;48.34;101670.41;5048491;28;20516;-65
2022/03/04 09:09:00;;;;;;;40.42;18.30;;;;;;;5.20;47.83;101664.34;5077829;28;20167;-65
2022/03/04 09:11:27;;;;;;;44.65;19.45;;;;;;;5.42;47.53;101678.78;5080461;28;20044;-65
2022/03/04 09:13:54;;;;;;;44.85;19.42;;;;;;;5.44;46.60;101671.63;5077231;28;20052;-65
2022/03/04 09:16:21;;;;;;;40.50;20.17;;;;;;;5.29;46.98;101668.19;5080610;28;20040;-65
2022/03/04 09:18:48;;;;;;;47.42;20.13;;;;;;;5.24;46.90;101680.78;5041831;28;20064;-64
2022/03/04 09:21:15;;;;;;;43.28;19.83;;;;;;;5.40;47.16;101678.88;5084981;28;20500;-65
2022/03/04 09:23:42;;;;;;;39.20;18.85;;;;;;;5.48;46.60;101681.88;5075527;28;20048;-65
2022/03/04 09:26:08;;;;;;;40.60;19.40;;;;;;;5.56;46.84;101689.28;5041147;28;20135;-65
2022/03/04 09:28:35;;;;;;;45.25;19.95;;;;;;;5.44;46.73;101683.03;5072545;28;20086;-65
2022/03/04 09:31:04;;;;;;;46.53;20.63;;;;;;;5.39;47.21;101690.34;5068074;28;20048;-65
2022/03/04 09:33:32;;;;;;;46.83;20.17;;;;;;;5.63;46.59;101687.09;5071527;28;20051;-65
2022/03/04 09:36:00;;;;;;;41.80;20.48;;;;;;;5.63;45.74;101687.09;5045957;28;20048;-65
2022/03/04 09:38:28;;;;;;;43.28;20.65;;;;;;;5.57;46.15;101686.53;5065057;28;20043;-65
2022/03/04 09:40:55;;;;;;;40.83;19.65;;;;;;;5.72;46.11;101684.72;5048661;28;20040;-64
2022/03/04 09:43:23;;;;;;;46.28;22.23;;;;;;;5.67;46.54;101676.25;5063533;28;20064;-65
2022/03/04 09:45:50;;;;;;;46.67;22.02;;;;;;;5.99;44.92;101673.34;5085816;28;20403;-64
2022/03/04 09:48:17;;;;;;;45.28;20.98;;;;;;;6.00;45.82;101675.03;5083913;28;20072;-65
2022/03/04 09:50:47;;;;;;;42.53;21.27;;;;;;;6.18;45.08;101680.03;5081208;28;20039;-65
2022/03/04 09:53:15;;;;;;;45.72;20.35;;;;;;;6.48;44.56;101679.75;5072205;28;20082;-65
2022/03/04 09:55:43;;;;;;;49.53;23.23;;;;;;;6.60;44.15;101680.72;5082386;28;21443;-64
2022/03/04 09:58:13;;;;;;;45.85;22.52;;;;;;;7.14;44.22;101676.97;5074501;28;20109;-65
2022/03/04 10:00:42;;;;;;;43.72;22.65;;;;;;;7.86;42.10;101684.97;5053833;28;20425;-65
2022/03/04 10:03:31;;;;;;;48.40;23.38;;;;;;;9.29;39.03;101684.59;5077424;28;20048;-65
2022/03/04 10:06:00;;;;;;;47.35;23.45;;;;;;;10.52;37.43;101686.94;5072119;28;20405;-65
2022/03/04 10:08:27;;;;;;;49.60;23.20;;;;;;;11.36;34.99;101681.41;5070610;28;20506;-65
2022/03/04 10:10:56;;;;;;;53.00;25.88;;;;;;;13.12;31.70;101678.56;5046280;28;20136;-65
2022/03/04 10:13:46;;;;;;;53.17;26.35;;;;;;;14.20;29.19;101683.00;5051658;28;20033;-65
2022/03/04 10:16:21;;;;;;;59.78;27.48;;;;;;;14.80;28.09;101675.25;5067643;28;20041;-65
2022/03/04 10:19:13;;;;;;;53.63;27.98;;;;;;;15.45;27.07;101677.34;5071477;28;20131;-65
2022/03/04 10:21:58;;;;;;;;;;;;;;;15.69;27.35;101677.38;5089321;28;20039;-66
2022/03/04 10:24:41;;;;;;;56.00;29.38;;;;;;;16.04;26.87;101674.59;5085171;28;20352;-66
2022/03/04 10:27:10;;;;;;;56.78;29.70;;;;;;;16.67;24.96;101671.16;5076183;28;20045;-64
2022/03/04 10:29:42;;;;;;;54.10;28.15;;;;;;;16.77;25.42;101675.47;5085647;28;20044;-63
2022/03/04 10:32:13;;;;;;;56.63;28.45;;;;;;;17.27;24.74;101667.09;5070625;28;20042;-65
2022/03/04 10:34:59;;;;;;;43.88;26.63;;;;;;;18.54;22.81;101677.38;5063063;28;20118;-66
2022/03/04 10:40:29;;;;;;;47.45;27.13;;;;;;;19.28;21.30;101673.00;5141621;27;20168;-66
2022/03/04 10:42:59;;;;;;;46.80;27.08;;;;;;;20.24;20.73;101672.72;5086350;28;20048;-66
2022/03/04 10:45:30;;;;;;;43.70;26.77;;;;;;;20.37;20.29;101664.72;5107321;28;20040;-66
2022/03/04 10:48:03;;;;;;;55.80;29.00;;;;;;;20.26;20.19;101667.97;5116570;28;20039;-66
2022/03/04 10:50:39;;;;;;;48.10;29.15;;;;;;;18.71;21.67;101664.59;5108127;28;20063;-66
2022/03/04 10:53:08;;;;;;;49.70;28.00;;;;;;;20.29;19.97;101660.31;5103582;28;20039;-66
2022/03/04 10:55:41;;;;;;;49.55;29.00;;;;;;;20.86;19.44;101661.09;5093811;28;20052;-66
2022/03/04 10:58:26;;;;;;;48.00;28.90;;;;;;;21.11;19.50;101657.91;5109611;28;20040;-66
2022/03/04 11:00:57;;;;;;;52.78;29.60;;;;;;;20.90;18.89;101659.69;5108599;28;20054;-66
2022/03/04 11:03:29;;;;;;;46.50;27.92;;;;;;;21.67;18.23;101659.53;5122692;28;20036;-66
2022/03/04 11:06:00;;;;;;;59.75;29.02;;;;;;;21.57;18.84;101654.53;5111007;28;20056;-66
2022/03/04 11:08:27;;;;;;;49.20;29.17;;;;;;;21.63;17.88;101656.41;5110469;28;20032;-66
2022/03/04 11:10:57;;;;;;;47.17;29.35;;;;;;;21.59;18.12;101659.72;5116497;27;20043;-66
2022/03/04 11:13:24;;;;;;;53.35;30.65;;;;;;;21.82;18.14;101664.75;5099410;28;20051;-66
2022/03/04 11:15:53;;;;;;;48.45;29.95;;;;;;;22.09;18.22;101664.75;5109696;28;20039;-64
2022/03/04 11:18:21;;;;;;;48.00;29.83;;;;;;;22.47;17.81;101669.53;5108293;28;20048;-64
2022/03/04 11:20:51;;;;;;;48.70;29.48;;;;;;;23.45;16.82;101669.41;5100487;28;20052;-62
2022/03/04 11:23:20;;;;;;;47.60;28.83;;;;;;;23.47;16.78;101666.47;5091669;28;20052;-63